CheckWX is a tool to help pilots better visualize weather data.  It is not intended as a substitute for an official pre-flight weather briefing.

06:43:54 UTC

0R4 METAR
Concordia Parish Airport
Vidalia, Louisiana, USA
Current

29 mins ago

K0R4 240615Z AUTO 33009KT 7SM OVC006 09/08 A3004 RMK AO2 T00850075
Observed
Jan-24 @ 06:15 UTC
Wind
  • 330° at 9 KTS
Visibility
7 SM
Flight Rules
IFR
Cloud Levels
  • Overcast at 600' AGL
Temperature
C / 48°F
Dewpoint
C / 46°F
Humidity
94%
Altimeter
30.04" Hg
Pressure
1017.32 hPa
Previous

49 mins ago

K0R4 240555Z AUTO 32010KT 7SM OVC006 09/08 A3004 RMK AO2 T00870079 10102 20087 401470066
Observed
Jan-24 @ 05:55 UTC
Wind
  • 320° at 10 KTS
Visibility
7 SM
Flight Rules
IFR
Cloud Levels
  • Overcast at 600' AGL
Temperature
C / 48°F
Dewpoint
C / 46°F
Humidity
94%
Altimeter
30.04" Hg
Pressure
1017.32 hPa
Previous

1 hour ago

K0R4 240535Z AUTO 32005KT 7SM BKN006 OVC013 09/09 A3004 RMK AO2 T00920086
Observed
Jan-24 @ 05:35 UTC
Wind
  • 320° at 5 KTS
Visibility
7 SM
Flight Rules
IFR
Cloud Levels
  • Broken at 600' AGL
  • Overcast at 1,300' AGL
Temperature
C / 48°F
Dewpoint
C / 48°F
Humidity
100%
Altimeter
30.04" Hg
Pressure
1017.32 hPa